Asheville, NC

2:28 AM EST on March 04, 2015 (GMT -0500)
Asheville Regional | Change Station
CLOSE
Current Station
Airport
Location: Asheville,
Elevation: 2169 ft
Nearby Weather Stations

Elev 2169 ft 35.43 °N, 82.54 °W | Updated 34 minutes ago

Overcast
Overcast
55 °F
Feels Like 55 °F
N
7
Wind Variable Wind from East

Today
High -- | Low -- °F
--% Chance of Precip.
Yesterday
High -- | Low -- °F
Precip. -- in
6:56 AM 6:27 PM
Waxing Gibbous, 98% visible
Pressure 29.99 in
Visibility 10.0 miles
Clouds Few 1000 ft
Mostly Cloudy 4800 ft
Overcast 5500 ft
Dew Point 52 °F
Humidity 89%
Rainfall 0.00 in
Snow Depth Not available.
UV 0 out of 12
Pollen 2.40 out of 12
Air Quality Not available.
Flu Activity Not available.
METAR KAVL 040654Z AUTO 10006KT 10SM FEW010 BKN048 OVC055 13/11 A3001 RMK AO2 SLP153 T01280111

More Conditions Fewer Conditions

Pressure 29.99 in
Visibility 10.0 miles
Clouds Few 1000 ft
Mostly Cloudy 4800 ft
Overcast 5500 ft
Dew Point 52 °F
Humidity 89%
Rainfall 0.00 in
Snow Depth Not available.
UV 0 out of 12
Pollen 2.40 out of 12
Air Quality Not available.
Flu Activity Not available.
METAR KAVL 040654Z AUTO 10006KT 10SM FEW010 BKN048 OVC055 13/11 A3001 RMK AO2 SLP153 T01280111

More Conditions Fewer Conditions

10-Day Weather Forecast

Almanac

Astronomy

Mar. 04, 2015 Rise Set
Actual Time
Civil Twilight
Nautical Twilight
Astronomical Twilight
Moon
Length of Visible Light
Length of Day
Tomorrow will be .
, % of the Moon is Illuminated

Today's Extremes

State Highs State Lows

Community

WunderPhotos

Upload Photos

1,802,402 photos uploaded!

WunderBlogs® & News

Nearby

Air Quality

  Air Quality AQ Index Pollutant
Not available.

Snow Depth

Station Depth Elevation

Earthquake Activity

City Distance Mag. Time & Date
Minimum magnitude displayed is 2.5.

Coastal Water Temperatures

Place Temperature

Nearby Weather Stations